TAF KBVI
KBVI 280544Z 2806/2906 15004KT P6SM VCSH OVC025 TEMPO 2806/2807 5SM -SN BKN015 FM281200 24009KT P6SM OVC015 FM281800 25010G18KT P6SM VCSH OVC015=
METAR KBVI
WC KBVI
WS KBVI
WV KBVI